Time;durP1;ratioP1;P1;durP2;ratioP2;P2;SDS_P1;SDS_P2;PMS_P1;PMS_P2;Temp;Humidity;BMP_temperature;BMP_pressure;BME280_temperature;BME280_humidity;BME280_pressure;Samples;Min_cycle;Max_cycle;Signal;HPM_P1;HPM_P2
2023/10/21 00:00:57;;;;;;;4.18;1.65;;;;;;;12.79;100.00;98411.47;4992841;28;96730;-28
2023/10/21 00:03:22;;;;;;;2.38;1.70;;;;;;;12.72;100.00;98403.16;4991952;28;96764;-28
2023/10/21 00:05:48;;;;;;;2.67;1.80;;;;;;;12.77;100.00;98415.38;4992223;28;96578;-28
2023/10/21 00:08:13;;;;;;;3.67;2.50;;;;;;;12.73;100.00;98410.28;4992182;28;99098;-28
2023/10/21 00:10:38;;;;;;;2.88;1.98;;;;;;;12.71;100.00;98411.47;4992426;28;97974;-28
2023/10/21 00:13:04;;;;;;;3.70;2.03;;;;;;;12.73;100.00;98413.00;4992731;28;96551;-28
2023/10/21 00:15:30;;;;;;;2.75;1.77;;;;;;;12.68;100.00;98406.34;4992420;28;96824;-28
2023/10/21 00:17:55;;;;;;;5.88;2.30;;;;;;;12.72;100.00;98418.59;4992591;28;97387;-28
2023/10/21 00:20:20;;;;;;;1.45;1.20;;;;;;;12.66;100.00;98420.13;4992655;28;97426;-28
2023/10/21 00:22:46;;;;;;;2.00;1.65;;;;;;;12.67;100.00;98420.97;4992330;28;96625;-28
2023/10/21 00:25:11;;;;;;;3.15;1.85;;;;;;;12.67;100.00;98421.81;4992045;28;96823;-29
2023/10/21 00:27:36;;;;;;;3.22;1.65;;;;;;;12.69;100.00;98429.81;4991627;28;103230;-29
2023/10/21 00:30:02;;;;;;;2.85;1.63;;;;;;;12.66;100.00;98431.00;4992210;28;97344;-28
2023/10/21 00:32:27;;;;;;;2.40;1.23;;;;;;;12.67;100.00;98438.13;4992339;28;96567;-28
2023/10/21 00:34:52;;;;;;;4.20;1.83;;;;;;;12.69;100.00;98441.50;4992610;28;96878;-28
2023/10/21 00:37:18;;;;;;;2.40;1.42;;;;;;;12.67;100.00;98443.53;4991616;28;99527;-28
2023/10/21 00:39:44;;;;;;;1.58;1.17;;;;;;;12.68;100.00;98447.97;4992105;28;97902;-28
2023/10/21 00:42:10;;;;;;;3.05;1.85;;;;;;;12.62;100.00;98440.47;4990684;28;96686;-27
2023/10/21 00:44:35;;;;;;;4.57;2.00;;;;;;;12.67;100.00;98451.69;4992203;28;96906;-29
2023/10/21 00:47:00;;;;;;;4.40;2.30;;;;;;;12.62;100.00;98447.78;4991689;28;100239;-28
2023/10/21 00:49:31;;;;;;;4.03;1.48;;;;;;;12.67;100.00;98468.00;4992472;28;96486;-28
2023/10/21 00:51:58;;;;;;;3.72;1.77;;;;;;;12.67;100.00;98461.72;4989880;28;97461;-28
2023/10/21 00:54:27;;;;;;;3.13;1.75;;;;;;;12.65;100.00;98461.88;4992120;28;96810;-28
2023/10/21 00:56:56;;;;;;;2.65;1.55;;;;;;;12.70;100.00;98472.25;4990404;28;101513;-28
2023/10/21 00:59:23;;;;;;;3.67;2.10;;;;;;;12.69;100.00;98471.41;4990265;28;100952;-28
2023/10/21 01:01:48;;;;;;;3.40;1.77;;;;;;;12.65;100.00;98467.31;4990518;28;96719;-28
2023/10/21 01:04:14;;;;;;;2.20;1.38;;;;;;;12.67;100.00;98478.00;4991930;28;96749;-29
2023/10/21 01:06:40;;;;;;;1.52;1.23;;;;;;;12.58;100.00;98466.25;4990235;28;99957;-28
2023/10/21 01:09:06;;;;;;;2.05;1.42;;;;;;;12.69;100.00;98476.81;4992071;28;97824;-28
2023/10/21 01:11:31;;;;;;;2.40;1.50;;;;;;;12.65;100.00;98470.00;4990328;28;96627;-29
2023/10/21 01:13:57;;;;;;;3.35;1.63;;;;;;;12.66;100.00;98470.91;4991910;28;96797;-28
2023/10/21 01:16:22;;;;;;;4.95;1.80;;;;;;;12.68;100.00;98477.84;4990981;28;99333;-28
2023/10/21 01:18:48;;;;;;;4.45;1.55;;;;;;;12.72;100.00;98484.63;4989898;28;101144;-28
2023/10/21 01:21:13;;;;;;;1.67;1.08;;;;;;;12.71;100.00;98485.66;4992058;28;96516;-28
2023/10/21 01:23:39;;;;;;;3.45;1.92;;;;;;;12.70;100.00;98480.38;4991816;28;96787;-28
2023/10/21 01:26:05;;;;;;;4.15;1.42;;;;;;;12.67;100.00;98478.84;4989914;28;100849;-28
2023/10/21 01:28:32;;;;;;;2.38;1.20;;;;;;;12.70;100.00;98485.81;4989971;28;101140;-28
2023/10/21 01:30:58;;;;;;;2.40;1.48;;;;;;;12.68;100.00;98490.56;4990163;28;97232;-28
2023/10/21 01:33:23;;;;;;;2.70;1.63;;;;;;;12.68;100.00;98498.72;4992154;28;96798;-28
2023/10/21 01:35:48;;;;;;;3.83;1.73;;;;;;;12.67;100.00;98494.31;4991489;28;97405;-28
2023/10/21 01:38:18;;;;;;;3.78;1.48;;;;;;;12.71;100.00;98503.84;4993757;28;103057;-28
2023/10/21 01:40:44;;;;;;;2.17;1.35;;;;;;;12.71;100.00;98509.25;4994184;28;96679;-28
2023/10/21 01:43:10;;;;;;;2.80;1.42;;;;;;;12.67;100.00;98499.75;4993360;28;97479;-28
2023/10/21 01:45:36;;;;;;;2.45;1.40;;;;;;;12.66;100.00;98500.78;4993577;28;98521;-28
2023/10/21 01:48:02;;;;;;;2.38;1.38;;;;;;;12.70;100.00;98507.53;4993130;28;101391;-28
2023/10/21 01:50:28;;;;;;;6.13;1.40;;;;;;;12.69;100.00;98505.84;4993243;28;96655;-27
2023/10/21 01:52:55;;;;;;;4.30;1.63;;;;;;;12.71;100.00;98507.41;4994936;28;96792;-28
2023/10/21 01:55:20;;;;;;;3.55;1.83;;;;;;;12.71;100.00;98520.97;4992967;28;100838;-28
2023/10/21 01:57:46;;;;;;;2.63;1.63;;;;;;;12.68;100.00;98515.00;4994985;28;97855;-29
2023/10/21 02:00:11;;;;;;;3.05;1.73;;;;;;;12.67;100.00;98525.03;4994962;28;96571;-28
2023/10/21 02:02:37;;;;;;;3.50;1.60;;;;;;;12.67;100.00;98527.75;4992839;28;97016;-28
2023/10/21 02:05:04;;;;;;;2.90;1.70;;;;;;;12.68;100.00;98531.31;4993676;28;99553;-28
2023/10/21 02:07:31;;;;;;;3.03;1.55;;;;;;;12.70;100.00;98546.44;4993982;28;98668;-28
2023/10/21 02:09:56;;;;;;;3.42;1.48;;;;;;;12.65;100.00;98537.06;4992995;28;96823;-28
2023/10/21 02:12:21;;;;;;;3.15;1.58;;;;;;;12.69;100.00;98546.59;4994901;28;96906;-28
2023/10/21 02:14:47;;;;;;;2.53;1.60;;;;;;;12.69;100.00;98555.59;4993929;28;99343;-28
2023/10/21 02:17:12;;;;;;;2.22;1.30;;;;;;;12.67;100.00;98554.06;4994224;28;97840;-28
2023/10/21 02:19:37;;;;;;;1.85;1.27;;;;;;;12.69;100.00;98558.31;4994675;28;97409;-28
2023/10/21 02:22:03;;;;;;;2.25;1.58;;;;;;;12.65;100.00;98559.66;4994740;28;96810;-28
2023/10/21 02:24:33;;;;;;;3.58;1.73;;;;;;;12.71;100.00;98564.44;4992493;28;100704;-28
2023/10/21 02:26:58;;;;;;;3.45;1.90;;;;;;;12.67;100.00;98563.06;4993919;28;97361;-29
2023/10/21 02:29:23;;;;;;;4.32;1.60;;;;;;;12.67;100.00;98563.06;4993849;28;96690;-28
2023/10/21 02:31:49;;;;;;;4.20;1.38;;;;;;;12.67;100.00;98563.06;4993990;28;96496;-29
2023/10/21 02:34:14;;;;;;;4.07;1.48;;;;;;;12.69;100.00;98569.19;4993938;28;98511;-28
2023/10/21 02:36:40;;;;;;;2.10;1.25;;;;;;;12.67;100.00;98560.34;4994003;28;97803;-28
2023/10/21 02:39:07;;;;;;;2.88;1.65;;;;;;;12.67;100.00;98557.63;4993776;28;96746;-28
2023/10/21 02:41:33;;;;;;;1.30;0.98;;;;;;;12.70;100.00;98576.31;4992533;28;97090;-28
2023/10/21 02:43:58;;;;;;;1.75;1.15;;;;;;;12.71;100.00;98563.59;4993444;28;99335;-28
2023/10/21 02:46:24;;;;;;;2.13;1.45;;;;;;;12.70;100.00;98567.31;4993420;28;97824;-27
2023/10/21 02:48:49;;;;;;;2.33;1.50;;;;;;;12.67;100.00;98565.78;4993776;28;96592;-27
2023/10/21 02:51:17;;;;;;;2.22;1.60;;;;;;;12.69;100.00;98580.03;4993887;28;96850;-28
2023/10/21 02:53:43;;;;;;;2.97;1.50;;;;;;;12.68;100.00;98580.19;4991419;28;101423;-28
2023/10/21 02:56:10;;;;;;;1.92;1.52;;;;;;;12.69;100.00;98590.06;4992093;28;100990;-28
2023/10/21 02:58:37;;;;;;;1.90;1.00;;;;;;;12.67;100.00;98595.66;4992166;28;96635;-28
2023/10/21 03:01:04;;;;;;;2.10;1.35;;;;;;;12.65;100.00;98594.13;4992092;28;96921;-28
2023/10/21 03:03:30;;;;;;;4.18;1.55;;;;;;;12.61;100.00;98601.75;4992095;28;98954;-28
2023/10/21 03:05:55;;;;;;;1.85;1.27;;;;;;;12.67;100.00;98605.66;4993342;28;101647;-28
2023/10/21 03:08:21;;;;;;;2.28;1.20;;;;;;;12.62;100.00;98598.00;4993794;28;96420;-28
2023/10/21 03:10:46;;;;;;;3.00;1.50;;;;;;;12.62;100.00;98599.88;4994040;28;96755;-28
2023/10/21 03:13:14;;;;;;;1.40;1.05;;;;;;;12.60;100.00;98599.19;4993337;28;97345;-28
2023/10/21 03:15:40;;;;;;;3.00;1.80;;;;;;;12.59;100.00;98614.63;4993239;28;97677;-28
2023/10/21 03:18:05;;;;;;;3.67;1.33;;;;;;;12.56;100.00;98608.66;4992951;28;99490;-28
2023/10/21 03:20:32;;;;;;;4.30;1.30;;;;;;;12.61;100.00;98611.75;4993296;28;96749;-28
2023/10/21 03:22:57;;;;;;;2.70;1.50;;;;;;;12.60;100.00;98619.03;4991658;28;101639;-28
2023/10/21 03:25:23;;;;;;;4.43;1.40;;;;;;;12.59;100.00;98619.22;4993062;28;97869;-28
2023/10/21 03:27:48;;;;;;;1.95;1.40;;;;;;;12.59;100.00;98620.06;4993035;28;97269;-32
2023/10/21 03:30:14;;;;;;;1.63;1.20;;;;;;;12.58;100.00;98615.63;4993009;28;96870;-28
2023/10/21 03:32:39;;;;;;;2.90;1.52;;;;;;;12.61;100.00;98625.31;4992942;28;98972;-28
2023/10/21 03:35:06;;;;;;;1.17;0.95;;;;;;;12.56;100.00;98623.13;4991996;28;100942;-28
2023/10/21 03:37:32;;;;;;;3.05;1.30;;;;;;;12.55;100.00;98621.41;4992855;28;96582;-28
2023/10/21 03:39:58;;;;;;;2.55;1.50;;;;;;;12.57;100.00;98630.25;4992925;28;96823;-28
2023/10/21 03:42:23;;;;;;;1.35;0.88;;;;;;;12.55;100.00;98632.25;4992225;28;102706;-29
2023/10/21 03:44:48;;;;;;;2.47;1.50;;;;;;;12.53;100.00;98635.13;4992331;28;102457;-28
2023/10/21 03:47:14;;;;;;;2.28;1.33;;;;;;;12.58;100.00;98645.50;4992472;28;96824;-28
2023/10/21 03:49:39;;;;;;;1.45;0.98;;;;;;;12.54;100.00;98639.56;4992893;28;96849;-28
2023/10/21 03:52:04;;;;;;;3.33;1.63;;;;;;;12.55;100.00;98643.13;4992673;28;98421;-28
2023/10/21 03:54:30;;;;;;;2.75;1.55;;;;;;;12.52;100.00;98646.16;4992417;28;98870;-28
2023/10/21 03:56:55;;;;;;;1.63;1.13;;;;;;;12.53;100.00;98659.56;4993066;28;97447;-28
2023/10/21 03:59:20;;;;;;;1.63;1.00;;;;;;;12.50;100.00;98659.06;4992358;28;100252;-28
2023/10/21 04:01:46;;;;;;;3.20;1.52;;;;;;;12.49;100.00;98658.22;4992220;28;102137;-28
2023/10/21 04:04:11;;;;;;;3.53;1.05;;;;;;;12.53;100.00;98664.16;4992975;28;97676;-28
2023/10/21 04:06:36;;;;;;;2.13;1.20;;;;;;;12.47;100.00;98654.81;4992255;28;96688;-29
2023/10/21 04:09:02;;;;;;;2.35;1.35;;;;;;;12.50;100.00;98673.47;4992763;28;96868;-28
2023/10/21 04:11:28;;;;;;;2.53;1.80;;;;;;;12.49;100.00;98685.38;4992283;28;99465;-28
2023/10/21 04:13:53;;;;;;;2.33;1.42;;;;;;;12.48;100.00;98689.06;4992443;28;96539;-30
2023/10/21 04:16:18;;;;;;;1.40;1.10;;;;;;;12.45;100.00;98683.97;4992625;28;96581;-28
2023/10/21 04:18:44;;;;;;;3.92;1.30;;;;;;;12.47;100.00;98691.97;4992399;28;100114;-28
2023/10/21 04:21:10;;;;;;;1.35;1.02;;;;;;;12.43;100.00;98687.88;4992413;28;97943;-28
2023/10/21 04:23:36;;;;;;;2.75;1.15;;;;;;;12.41;100.00;98687.16;4992770;28;97976;-28
2023/10/21 04:26:03;;;;;;;1.75;1.23;;;;;;;12.36;100.00;98690.34;4992115;28;96837;-28
2023/10/21 04:28:29;;;;;;;1.58;1.00;;;;;;;12.43;100.00;98706.88;4990756;28;97024;-28
2023/10/21 04:30:54;;;;;;;2.33;1.35;;;;;;;12.40;100.00;98705.31;4991748;28;97959;-28
2023/10/21 04:33:19;;;;;;;3.45;1.08;;;;;;;12.41;100.00;98712.44;4992253;28;97626;-28
2023/10/21 04:35:45;;;;;;;2.10;1.20;;;;;;;12.40;100.00;98710.75;4992271;28;96754;-28
2023/10/21 04:38:10;;;;;;;2.35;0.93;;;;;;;12.47;100.00;98719.13;4992454;28;96808;-28
2023/10/21 04:40:35;;;;;;;2.20;1.30;;;;;;;12.47;100.00;98727.28;4991799;28;99043;-28
2023/10/21 04:43:01;;;;;;;1.70;0.90;;;;;;;12.46;100.00;98725.53;4991812;28;99279;-28
2023/10/21 04:45:26;;;;;;;2.40;1.15;;;;;;;12.48;100.00;98727.09;4991673;28;98091;-28
2023/10/21 04:47:51;;;;;;;2.03;1.15;;;;;;;12.54;100.00;98737.34;4991406;28;96639;-29
2023/10/21 04:50:17;;;;;;;1.52;1.13;;;;;;;12.58;100.00;98737.84;4992013;28;98070;-28
2023/10/21 04:52:43;;;;;;;2.17;0.90;;;;;;;12.59;100.00;98746.88;4991620;28;99456;-28
2023/10/21 04:55:08;;;;;;;3.25;1.15;;;;;;;12.61;100.00;98748.41;4991334;28;97271;-29
2023/10/21 04:57:34;;;;;;;2.92;1.30;;;;;;;12.63;100.00;98754.53;4991823;28;96896;-28
2023/10/21 04:59:59;;;;;;;2.80;1.30;;;;;;;12.63;100.00;98754.53;4991894;28;97465;-28
2023/10/21 05:02:25;;;;;;;2.75;1.58;;;;;;;12.68;100.00;98773.06;4991785;28;97835;-28
2023/10/21 05:04:50;;;;;;;4.35;1.15;;;;;;;12.66;100.00;98750.66;4992327;28;96561;-28
2023/10/21 05:07:16;;;;;;;3.10;1.45;;;;;;;12.69;100.00;98762.03;4991674;28;96813;-29
2023/10/21 05:09:42;;;;;;;1.58;1.27;;;;;;;12.73;100.00;98777.00;4990185;28;100962;-28
2023/10/21 05:12:10;;;;;;;1.48;1.13;;;;;;;12.72;100.00;98763.59;4992532;28;104792;-28
2023/10/21 05:14:36;;;;;;;2.00;1.38;;;;;;;12.72;100.00;98763.59;4993899;28;96660;-27
2023/10/21 05:17:01;;;;;;;1.65;1.27;;;;;;;12.75;100.00;98775.00;4993849;28;96816;-28
2023/10/21 05:19:26;;;;;;;5.15;1.45;;;;;;;12.78;100.00;98781.13;4994813;28;97511;-28
2023/10/21 05:21:52;;;;;;;5.10;1.52;;;;;;;12.71;100.00;98773.59;4995041;28;101210;-28
2023/10/21 05:24:17;;;;;;;3.17;1.63;;;;;;;12.74;100.00;98772.44;4995075;28;96645;-29
2023/10/21 05:26:42;;;;;;;1.48;1.05;;;;;;;12.74;100.00;98772.44;4994681;28;96817;-27
2023/10/21 05:29:07;;;;;;;2.25;1.50;;;;;;;12.72;100.00;98777.16;4994752;28;107124;-28
2023/10/21 05:31:33;;;;;;;4.30;1.38;;;;;;;12.74;100.00;98781.41;4995013;28;97449;-30
2023/10/21 05:33:59;;;;;;;1.95;1.10;;;;;;;12.71;100.00;98789.06;4995208;28;96533;-28
2023/10/21 05:36:25;;;;;;;2.08;1.45;;;;;;;12.73;100.00;98782.44;4995390;28;96759;-31
2023/10/21 05:38:51;;;;;;;2.22;1.33;;;;;;;12.73;100.00;98800.63;4993257;28;101502;-28
2023/10/21 05:41:16;;;;;;;2.53;1.15;;;;;;;12.71;100.00;98800.75;4994727;28;97788;-28
2023/10/21 05:43:41;;;;;;;5.32;1.05;;;;;;;12.65;100.00;98801.38;4994419;28;96737;-28
2023/10/21 05:46:07;;;;;;;3.58;1.15;;;;;;;12.68;100.00;98806.53;4994508;28;96861;-28
2023/10/21 05:48:32;;;;;;;2.00;1.25;;;;;;;12.68;100.00;98805.66;4994752;28;97369;-28
2023/10/21 05:51:01;;;;;;;3.20;1.17;;;;;;;12.72;100.00;98816.03;4994895;28;97764;-28
2023/10/21 05:53:27;;;;;;;1.30;0.93;;;;;;;12.71;100.00;98813.50;4993160;28;96546;-29
2023/10/21 05:55:54;;;;;;;1.13;0.80;;;;;;;12.74;100.00;98819.44;4994355;28;96835;-28
2023/10/21 05:58:19;;;;;;;3.70;1.05;;;;;;;12.77;100.00;98817.44;4993006;28;101245;-28
2023/10/21 06:00:45;;;;;;;2.40;1.45;;;;;;;12.76;100.00;98819.31;4994619;28;99168;-28
2023/10/21 06:03:10;;;;;;;1.52;1.02;;;;;;;12.78;100.00;98822.72;4994688;28;96610;-28
2023/10/21 06:05:35;;;;;;;1.52;0.98;;;;;;;12.80;100.00;98825.25;4994341;28;96843;-28
2023/10/21 06:08:01;;;;;;;4.15;1.55;;;;;;;12.83;100.00;98838.56;4994105;28;97429;-28
2023/10/21 06:10:26;;;;;;;3.63;1.20;;;;;;;12.82;100.00;98839.53;4994116;28;98762;-28
2023/10/21 06:12:51;;;;;;;2.25;1.20;;;;;;;12.84;100.00;98838.38;4994340;28;96518;-28
2023/10/21 06:15:17;;;;;;;4.57;1.70;;;;;;;12.84;100.00;98849.25;4994282;28;96819;-28
2023/10/21 06:17:42;;;;;;;1.30;1.02;;;;;;;12.91;100.00;98865.78;4994178;28;98824;-28
2023/10/21 06:20:08;;;;;;;4.18;1.80;;;;;;;12.89;100.00;98859.63;4994164;28;97294;-28
2023/10/21 06:22:33;;;;;;;2.95;1.30;;;;;;;12.94;100.00;98865.44;4993882;28;96543;-28
2023/10/21 06:24:59;;;;;;;2.50;1.27;;;;;;;12.91;100.00;98863.91;4994509;28;96761;-28
2023/10/21 06:27:25;;;;;;;0.88;0.85;;;;;;;12.91;100.00;98868.50;4992721;28;101343;-28
2023/10/21 06:29:50;;;;;;;1.70;1.30;;;;;;;12.93;100.00;98871.91;4993928;28;99296;-28
2023/10/21 06:32:16;;;;;;;1.27;1.15;;;;;;;12.93;100.00;98877.34;4993756;28;96487;-28
2023/10/21 06:34:41;;;;;;;2.47;1.40;;;;;;;12.93;100.00;98877.34;4993881;28;96941;-28
2023/10/21 06:37:07;;;;;;;3.53;1.58;;;;;;;12.96;100.00;98893.31;4993620;28;99602;-29
2023/10/21 06:39:32;;;;;;;1.80;1.15;;;;;;;12.98;100.00;98902.16;4993899;28;97914;-30
2023/10/21 06:41:57;;;;;;;1.70;0.98;;;;;;;12.94;100.00;98898.94;4993799;28;96497;-30
2023/10/21 06:44:23;;;;;;;2.38;1.30;;;;;;;13.00;100.00;98916.47;4993562;28;96857;-28
2023/10/21 06:46:49;;;;;;;2.83;1.27;;;;;;;13.01;100.00;98917.31;4991801;28;101126;-28
2023/10/21 06:49:14;;;;;;;4.13;1.50;;;;;;;13.01;100.00;98929.03;4992611;28;100924;-28
2023/10/21 06:51:40;;;;;;;1.67;1.08;;;;;;;12.96;100.00;98924.06;4993604;28;99265;-29
2023/10/21 06:54:05;;;;;;;3.75;1.38;;;;;;;12.98;100.00;98925.78;4993557;28;96836;-28
2023/10/21 06:56:31;;;;;;;2.80;1.08;;;;;;;13.03;100.00;98943.31;4992848;28;99520;-28
2023/10/21 06:58:57;;;;;;;2.13;1.48;;;;;;;13.00;100.00;98943.63;4992047;28;101430;-28
2023/10/21 07:01:22;;;;;;;1.85;1.08;;;;;;;12.99;100.00;98939.22;4993901;28;96660;-28
2023/10/21 07:03:49;;;;;;;3.33;1.10;;;;;;;13.01;100.00;98953.47;4993840;28;96803;-28
2023/10/21 07:06:16;;;;;;;3.08;1.38;;;;;;;13.02;100.00;98951.66;4991987;28;101366;-28
2023/10/21 07:08:41;;;;;;;5.10;1.25;;;;;;;13.05;100.00;98964.91;4991987;28;100839;-28
2023/10/21 07:11:07;;;;;;;4.35;1.52;;;;;;;13.06;100.00;98972.94;4993486;28;96532;-29
2023/10/21 07:13:33;;;;;;;3.45;1.08;;;;;;;13.05;100.00;98973.91;4993956;28;96751;-28
2023/10/21 07:16:10;;;;;;;1.73;1.20;;;;;;;13.02;100.00;98982.38;4993456;28;97506;-28
2023/10/21 07:18:38;;;;;;;2.45;1.02;;;;;;;12.95;100.00;98975.88;4993264;28;99224;-28
2023/10/21 07:21:07;;;;;;;1.58;1.00;;;;;;;13.08;100.00;98991.78;4991578;28;97733;-29
2023/10/21 07:23:32;;;;;;;1.77;1.25;;;;;;;13.07;100.00;98993.66;4991788;28;97129;-28
2023/10/21 07:25:57;;;;;;;2.63;1.30;;;;;;;13.09;100.00;98994.34;4993096;28;98529;-28
2023/10/21 07:28:23;;;;;;;4.15;1.08;;;;;;;13.07;100.00;98992.78;4992916;28;99543;-28
2023/10/21 07:30:48;;;;;;;1.50;0.90;;;;;;;13.10;100.00;99006.91;4993355;28;96523;-28
2023/10/21 07:33:14;;;;;;;2.00;1.45;;;;;;;13.06;100.00;99010.97;4993162;28;96804;-28
2023/10/21 07:35:39;;;;;;;1.55;0.98;;;;;;;13.06;100.00;99010.97;4992056;28;98097;-28
2023/10/21 07:38:05;;;;;;;1.33;0.73;;;;;;;13.03;100.00;99010.41;4993064;28;101335;-28
2023/10/21 07:40:30;;;;;;;1.67;1.23;;;;;;;13.08;100.00;99029.81;4993038;28;96564;-28
2023/10/21 07:42:56;;;;;;;0.65;0.65;;;;;;;12.98;100.00;99021.75;4993086;28;96715;-28
2023/10/21 07:45:21;;;;;;;4.50;0.90;;;;;;;13.01;100.00;99032.31;4991419;28;99939;-28
2023/10/21 07:47:47;;;;;;;1.17;1.05;;;;;;;13.07;100.00;99041.72;4991357;28;99280;-28
2023/10/21 07:50:13;;;;;;;0.50;0.50;;;;;;;13.05;100.00;99044.59;4991626;28;96491;-28
2023/10/21 07:52:39;;;;;;;0.93;0.68;;;;;;;13.05;100.00;99035.59;4992235;28;98056;-28
2023/10/21 07:55:05;;;;;;;0.43;0.43;;;;;;;13.03;100.00;99041.16;4992886;28;97492;-28
2023/10/21 07:57:33;;;;;;;0.88;0.60;;;;;;;13.01;100.00;99029.59;4992402;28;99671;-28
2023/10/21 08:00:00;;;;;;;0.80;0.40;;;;;;;13.04;100.00;99040.16;4992865;28;96487;-28
2023/10/21 08:02:26;;;;;;;0.40;0.40;;;;;;;13.11;100.00;99043.97;4991742;28;96674;-28
2023/10/21 08:04:52;;;;;;;3.28;0.45;;;;;;;13.18;100.00;99063.25;4992541;28;98083;-29
2023/10/21 08:07:17;;;;;;;2.25;0.40;;;;;;;13.16;100.00;99068.84;4990950;28;101312;-28
2023/10/21 08:09:43;;;;;;;1.73;0.30;;;;;;;13.14;100.00;99084.44;4992312;28;96649;-28
2023/10/21 08:12:08;;;;;;;0.35;0.30;;;;;;;13.12;100.00;99081.00;4992744;28;96877;-28
2023/10/21 08:14:36;;;;;;;0.55;0.20;;;;;;;13.11;100.00;99079.31;4992590;28;97479;-29
2023/10/21 08:17:04;;;;;;;0.10;0.10;;;;;;;13.13;100.00;99085.47;4990967;28;100902;-28
2023/10/21 08:19:30;;;;;;;0.30;0.25;;;;;;;13.16;100.00;99090.56;4990961;28;97162;-28
2023/10/21 08:21:56;;;;;;;0.32;0.13;;;;;;;13.15;100.00;99101.59;4991013;28;96922;-28
2023/10/21 08:24:22;;;;;;;0.22;0.17;;;;;;;13.13;100.00;99098.19;4990904;28;101082;-28
2023/10/21 08:26:47;;;;;;;0.15;0.15;;;;;;;13.18;100.00;99114.91;4992663;28;97263;-28
2023/10/21 08:29:13;;;;;;;0.20;0.15;;;;;;;13.11;100.00;99103.78;4992270;28;96479;-28
2023/10/21 08:31:38;;;;;;;0.30;0.20;;;;;;;13.11;100.00;99113.81;4992205;28;99639;-28
2023/10/21 08:34:05;;;;;;;2.42;0.22;;;;;;;13.11;100.00;99113.81;4991745;28;101444;-28
2023/10/21 08:36:30;;;;;;;1.58;0.47;;;;;;;13.07;100.00;99112.41;4991863;28;97891;-30
2023/10/21 08:38:56;;;;;;;3.92;0.30;;;;;;;13.07;100.00;99115.13;4992161;28;96581;-28
2023/10/21 08:41:21;;;;;;;1.75;0.63;;;;;;;13.06;100.00;99113.38;4992286;28;96815;-28
2023/10/21 08:43:48;;;;;;;0.30;0.20;;;;;;;13.02;100.00;99117.44;4992062;28;98026;-28
2023/10/21 08:46:18;;;;;;;2.38;0.40;;;;;;;13.09;100.00;99137.56;4989767;28;101128;-28
2023/10/21 08:48:45;;;;;;;1.20;0.32;;;;;;;13.05;100.00;99128.84;4990650;28;96741;-28
2023/10/21 08:51:15;;;;;;;0.30;0.10;;;;;;;13.03;100.00;99130.88;4990990;28;96764;-28
2023/10/21 08:53:43;;;;;;;0.10;0.10;;;;;;;13.07;100.00;99137.72;4990356;28;100910;-28
2023/10/21 08:56:11;;;;;;;0.22;0.20;;;;;;;13.01;100.00;99135.59;4990547;28;101325;-28
2023/10/21 08:58:37;;;;;;;0.30;0.20;;;;;;;13.08;100.00;99144.00;4990052;28;97133;-28
2023/10/21 09:01:02;;;;;;;0.80;0.20;;;;;;;13.06;100.00;99155.03;4991990;28;96773;-28
2023/10/21 09:03:28;;;;;;;0.20;0.17;;;;;;;13.06;100.00;99165.03;4991549;28;99318;-27
2023/10/21 09:06:10;;;;;;;0.65;0.20;;;;;;;13.08;100.00;99160.31;4991799;28;97859;-28
2023/10/21 09:08:35;;;;;;;;;;;;;;;13.09;100.00;99175.63;4992695;28;96542;-28
2023/10/21 09:11:02;;;;;;;0.38;0.30;;;;;;;13.00;99.04;99161.06;4991910;28;96913;-28
2023/10/21 09:13:31;;;;;;;0.55;0.10;;;;;;;13.05;99.36;99174.22;4990173;28;101086;-28
2023/10/21 09:15:57;;;;;;;1.08;0.38;;;;;;;13.08;99.80;99177.47;4990290;28;101246;-27
2023/10/21 09:18:23;;;;;;;0.85;0.32;;;;;;;13.04;98.22;99167.03;4990476;28;96642;-28
2023/10/21 09:20:51;;;;;;;0.10;0.10;;;;;;;13.08;97.41;99174.75;4991749;28;96728;-28
2023/10/21 09:23:19;;;;;;;0.10;0.10;;;;;;;13.12;98.56;99180.75;4989727;28;101165;-28
2023/10/21 09:25:52;;;;;;;0.50;0.22;;;;;;;13.09;98.75;99164.75;4991400;28;97310;-28
2023/10/21 09:28:22;;;;;;;2.15;0.20;;;;;;;13.27;98.90;99186.53;4990316;28;96612;-28
2023/10/21 09:30:58;;;;;;;0.13;0.10;;;;;;;13.31;97.54;99185.25;4989884;28;96775;-28
2023/10/21 09:33:25;;;;;;;1.02;0.32;;;;;;;13.40;97.58;99183.47;4990434;28;97960;-28
2023/10/21 09:36:03;;;;;;;3.05;0.25;;;;;;;13.45;95.61;99190.16;4988230;28;101179;-28
2023/10/21 09:38:35;;;;;;;1.45;0.22;;;;;;;13.52;95.85;99193.13;4989467;28;96674;-28
2023/10/21 09:41:05;;;;;;;0.10;0.10;;;;;;;13.59;91.49;99186.91;4989596;28;96799;-28
2023/10/21 09:43:32;;;;;;;0.43;0.15;;;;;;;13.67;91.86;99197.00;4989158;28;100903;-31
2023/10/21 09:46:04;;;;;;;0.40;0.25;;;;;;;13.75;93.49;99186.22;4988904;28;101248;-28
2023/10/21 09:48:39;;;;;;;2.00;0.17;;;;;;;13.80;92.82;99197.50;4989310;28;96593;-29
2023/10/21 09:51:09;;;;;;;0.40;0.17;;;;;;;13.81;92.20;99192.88;4989085;28;97018;-33
2023/10/21 09:53:39;;;;;;;3.03;0.25;;;;;;;13.94;91.88;99209.69;4986954;28;101478;-31
2023/10/21 09:56:04;;;;;;;0.70;0.30;;;;;;;13.96;92.53;99206.78;4987621;28;100492;-28
2023/10/21 09:58:31;;;;;;;0.25;0.10;;;;;;;13.96;90.64;99212.25;4990252;28;96737;-33
2023/10/21 10:01:02;;;;;;;1.13;0.40;;;;;;;13.98;90.59;99219.25;4990821;28;96836;-30
2023/10/21 10:03:34;;;;;;;0.22;0.08;;;;;;;13.98;92.07;99215.66;4991007;28;101163;-27
2023/10/21 10:06:03;;;;;;;0.17;0.00;;;;;;;13.99;90.05;99217.38;4993156;28;100464;-29
2023/10/21 10:08:30;;;;;;;1.23;0.28;;;;;;;14.05;89.96;99232.22;4993141;28;96580;-28
2023/10/21 10:10:58;;;;;;;1.63;0.22;;;;;;;14.12;91.11;99227.88;4994515;28;96788;-27
2023/10/21 10:13:24;;;;;;;0.35;0.20;;;;;;;14.21;90.76;99226.94;4992342;28;100868;-27
2023/10/21 10:15:50;;;;;;;0.25;0.17;;;;;;;14.36;87.79;99230.78;4992817;28;100909;-29
2023/10/21 10:18:19;;;;;;;0.15;0.10;;;;;;;14.37;87.62;99242.53;4994456;28;96553;-27
2023/10/21 10:20:50;;;;;;;2.70;0.40;;;;;;;14.27;89.18;99231.72;4990545;28;97016;-31
2023/10/21 10:23:18;;;;;;;1.90;0.30;;;;;;;14.55;87.32;99234.34;4990309;28;100935;-28
2023/10/21 10:25:46;;;;;;;1.02;0.20;;;;;;;14.59;85.33;99244.78;4990180;28;101109;-31
2023/10/21 10:28:17;;;;;;;2.83;0.77;;;;;;;14.61;84.35;99245.47;4990375;28;97130;-29
2023/10/21 10:30:44;;;;;;;0.10;0.10;;;;;;;14.40;84.45;99244.97;4992040;28;97101;-35
2023/10/21 10:33:15;;;;;;;0.98;0.32;;;;;;;14.37;85.11;99251.56;4990384;28;98942;-28
2023/10/21 10:35:47;;;;;;;0.53;0.20;;;;;;;14.32;85.20;99262.06;4993518;28;97878;-27
2023/10/21 10:38:25;;;;;;;;;;;;;;;14.30;85.04;99260.50;4993839;28;96575;-28
2023/10/21 10:40:52;;;;;;;0.73;0.10;;;;;;;14.29;88.01;99262.38;4976976;28;97016;-27
2023/10/21 10:43:19;;;;;;;0.20;0.15;;;;;;;14.27;85.51;99272.59;4992227;28;101112;-30
2023/10/21 10:45:44;;;;;;;1.90;0.38;;;;;;;14.15;85.25;99261.06;4991538;28;100799;-28
2023/10/21 10:48:11;;;;;;;0.65;0.13;;;;;;;14.10;85.04;99262.56;4994366;28;96496;-27
2023/10/21 10:50:37;;;;;;;1.10;0.20;;;;;;;14.13;86.33;99271.25;4992387;28;96811;-28
2023/10/21 10:53:12;;;;;;;0.32;0.20;;;;;;;14.09;85.46;99260.88;4993585;28;98127;-27
2023/10/21 10:55:43;;;;;;;0.40;0.32;;;;;;;14.06;84.54;99277.50;4993784;28;99298;-27
2023/10/21 10:58:11;;;;;;;2.17;0.43;;;;;;;14.05;87.34;99267.63;4993643;28;96617;-27
2023/10/21 11:00:39;;;;;;;2.72;0.28;;;;;;;14.03;85.61;99276.78;4992416;28;96812;-27
2023/10/21 11:03:06;;;;;;;4.78;0.30;;;;;;;14.01;87.44;99275.25;4992940;28;97960;-27
2023/10/21 11:05:32;;;;;;;0.35;0.20;;;;;;;13.97;87.25;99279.31;4992051;28;99537;-28
2023/10/21 11:07:57;;;;;;;0.30;0.20;;;;;;;13.91;85.60;99269.88;4992844;28;96714;-27
2023/10/21 11:10:24;;;;;;;0.75;0.20;;;;;;;13.92;86.23;99265.28;4992893;28;97560;-27
2023/10/21 11:12:50;;;;;;;0.20;0.17;;;;;;;13.90;84.77;99281.78;4992566;28;98150;-28
2023/10/21 11:15:16;;;;;;;1.33;0.55;;;;;;;13.86;84.77;99268.63;4992412;28;98880;-27
2023/10/21 11:17:43;;;;;;;2.03;0.45;;;;;;;13.86;85.78;99266.75;4993429;28;96507;-27
2023/10/21 11:20:09;;;;;;;0.15;0.10;;;;;;;13.90;85.97;99267.31;4992372;28;96819;-28
2023/10/21 11:22:34;;;;;;;1.48;0.30;;;;;;;13.96;85.46;99262.09;4993098;28;99336;-27